createdAt,value
2023-04-03T00:00:09.629Z,969.04
2023-04-03T00:01:09.613Z,969.01
2023-04-03T00:02:09.629Z,969.01
2023-04-03T00:03:09.675Z,969.02
2023-04-03T00:04:09.644Z,969.01
2023-04-03T00:05:09.584Z,968.96
2023-04-03T00:06:09.586Z,968.99
2023-04-03T00:07:09.558Z,968.98
2023-04-03T00:08:09.612Z,969.01
2023-04-03T00:09:10.649Z,969.01
2023-04-03T00:10:09.573Z,969.02
2023-04-03T00:11:09.549Z,969.02
2023-04-03T00:12:09.532Z,968.99
2023-04-03T00:13:09.506Z,968.99
2023-04-03T00:14:09.491Z,969.02
2023-04-03T00:15:09.468Z,968.98
2023-04-03T00:16:09.494Z,968.97
2023-04-03T00:17:09.498Z,968.96
2023-04-03T00:18:09.501Z,968.96
2023-04-03T00:19:09.445Z,969.03
2023-04-03T00:20:09.421Z,968.98
2023-04-03T00:21:09.423Z,968.97
2023-04-03T00:22:09.401Z,968.99
2023-04-03T00:23:09.408Z,969.00
2023-04-03T00:24:09.399Z,968.98
2023-04-03T00:25:09.364Z,968.98
2023-04-03T00:26:09.367Z,968.99
2023-04-03T00:27:09.342Z,969.00
2023-04-03T00:28:09.355Z,968.96
2023-04-03T00:29:09.386Z,969.09
2023-04-03T00:30:09.326Z,968.99
2023-04-03T00:31:09.356Z,968.95
2023-04-03T00:32:09.314Z,968.97
2023-04-03T00:33:09.319Z,968.94
2023-04-03T00:34:09.276Z,969.00
2023-04-03T00:35:09.298Z,968.99
2023-04-03T00:36:09.383Z,969.02
2023-04-03T00:37:09.240Z,969.04
2023-04-03T00:38:09.273Z,968.99
2023-04-03T00:39:09.226Z,968.99
2023-04-03T00:40:09.223Z,969.02
2023-04-03T00:41:09.216Z,969.02
2023-04-03T00:42:09.201Z,969.00
2023-04-03T00:43:09.285Z,969.00
2023-04-03T00:44:09.170Z,969.01
2023-04-03T00:45:09.164Z,968.99
2023-04-03T00:46:09.205Z,968.98
2023-04-03T00:47:09.149Z,969.01
2023-04-03T00:48:09.151Z,969.01
2023-04-03T00:49:09.171Z,969.04
2023-04-03T00:50:09.125Z,969.04
2023-04-03T00:51:09.107Z,969.02
2023-04-03T00:52:09.120Z,969.01
2023-04-03T00:53:09.099Z,969.00
2023-04-03T00:54:09.128Z,968.99
2023-04-03T00:55:09.086Z,968.99
2023-04-03T00:56:09.059Z,969.02
2023-04-03T00:57:09.073Z,968.94
2023-04-03T00:58:09.085Z,969.00
2023-04-03T00:59:09.027Z,968.98
2023-04-03T01:00:09.098Z,968.98
2023-04-03T01:01:09.029Z,969.04
2023-04-03T01:02:09.040Z,969.00
2023-04-03T01:03:08.984Z,969.02
2023-04-03T01:04:08.978Z,969.02
2023-04-03T01:05:09.029Z,969.01
2023-04-03T01:06:08.956Z,969.01
2023-04-03T01:07:08.972Z,968.98
2023-04-03T01:08:08.941Z,968.97
2023-04-03T01:09:08.934Z,969.00
2023-04-03T01:10:08.903Z,968.99
2023-04-03T01:11:08.934Z,968.99
2023-04-03T01:12:08.903Z,969.00
2023-04-03T01:13:08.921Z,969.01
2023-04-03T01:14:08.884Z,969.05
2023-04-03T01:15:08.871Z,969.01
2023-04-03T01:16:08.937Z,969.00
2023-04-03T01:17:08.882Z,969.04
2023-04-03T01:18:08.896Z,969.06
2023-04-03T01:19:08.847Z,969.07
2023-04-03T01:20:08.832Z,969.08
2023-04-03T01:21:08.843Z,969.08
2023-04-03T01:22:08.795Z,969.09
2023-04-03T01:23:08.783Z,969.09
2023-04-03T01:24:08.783Z,969.11
2023-04-03T01:25:08.789Z,969.06
2023-04-03T01:26:08.747Z,969.08
2023-04-03T01:27:08.809Z,969.09
2023-04-03T01:28:08.752Z,969.11
2023-04-03T01:29:08.716Z,969.11
2023-04-03T01:30:08.718Z,969.11
2023-04-03T01:31:08.733Z,969.12
2023-04-03T01:32:08.683Z,969.16
2023-04-03T01:33:08.761Z,969.10
2023-04-03T01:34:08.681Z,969.10
2023-04-03T01:35:08.689Z,969.10
2023-04-03T01:36:08.691Z,969.11
2023-04-03T01:37:08.635Z,969.10
2023-04-03T01:38:08.631Z,969.12
2023-04-03T01:39:08.652Z,969.12
2023-04-03T01:40:08.604Z,969.13
2023-04-03T01:41:08.656Z,969.12
2023-04-03T01:42:08.601Z,969.11
2023-04-03T01:43:08.632Z,969.13
2023-04-03T01:44:08.599Z,969.15
2023-04-03T01:45:08.566Z,969.14
2023-04-03T01:46:08.675Z,969.15
2023-04-03T01:47:08.598Z,969.13
2023-04-03T01:48:08.564Z,969.13
2023-04-03T01:49:08.520Z,969.12
2023-04-03T01:50:08.505Z,969.12
2023-04-03T01:51:08.524Z,969.14
2023-04-03T01:52:08.485Z,969.15
2023-04-03T01:53:08.536Z,969.11
2023-04-03T01:54:08.452Z,969.15
2023-04-03T01:55:08.454Z,969.11
2023-04-03T01:56:08.444Z,969.13
2023-04-03T01:57:08.470Z,969.11
2023-04-03T01:58:08.452Z,969.12
2023-04-03T01:59:08.408Z,969.14
2023-04-03T02:00:08.448Z,969.14
2023-04-03T02:01:08.409Z,969.13
2023-04-03T02:02:08.408Z,969.14
2023-04-03T02:03:08.411Z,969.12
2023-04-03T02:04:08.479Z,969.11
2023-04-03T02:05:08.351Z,969.11
2023-04-03T02:06:08.335Z,969.10
2023-04-03T02:07:08.340Z,969.10
2023-04-03T02:08:08.332Z,969.10
2023-04-03T02:09:08.308Z,969.09
2023-04-03T02:10:08.300Z,969.09
2023-04-03T02:11:08.291Z,969.14
2023-04-03T02:12:08.278Z,969.10
2023-04-03T02:13:08.305Z,969.10
2023-04-03T02:14:08.277Z,969.14
2023-04-03T02:15:08.268Z,969.10
2023-04-03T02:16:08.254Z,969.12
2023-04-03T02:17:08.228Z,969.14
2023-04-03T02:18:08.366Z,969.20
2023-04-03T02:19:08.239Z,969.16
2023-04-03T02:20:08.204Z,969.16
2023-04-03T02:21:08.226Z,969.16
2023-04-03T02:22:08.188Z,969.16
2023-04-03T02:23:08.222Z,969.15
2023-04-03T02:24:08.168Z,969.16
2023-04-03T02:25:08.159Z,969.17
2023-04-03T02:26:08.127Z,969.18
2023-04-03T02:27:08.118Z,969.18
2023-04-03T02:28:08.158Z,969.19
2023-04-03T02:29:08.114Z,969.21
2023-04-03T02:30:08.084Z,969.21
2023-04-03T02:31:08.133Z,969.23
2023-04-03T02:32:08.061Z,969.23
2023-04-03T02:33:08.195Z,969.22
2023-04-03T02:34:08.058Z,969.24
2023-04-03T02:35:08.040Z,969.25
2023-04-03T02:36:08.141Z,969.25
2023-04-03T02:37:08.059Z,969.23
2023-04-03T02:38:08.025Z,969.22
2023-04-03T02:39:08.008Z,969.22
2023-04-03T02:40:07.993Z,969.21
2023-04-03T02:41:07.987Z,969.22
2023-04-03T02:42:07.956Z,969.21
2023-04-03T02:43:08.004Z,969.21
2023-04-03T02:44:07.964Z,969.21
2023-04-03T02:45:07.933Z,969.21
2023-04-03T02:46:08.080Z,969.22
2023-04-03T02:47:07.982Z,969.21
2023-04-03T02:48:08.041Z,969.20
2023-04-03T02:49:07.979Z,969.21
2023-04-03T02:50:07.907Z,969.21
2023-04-03T02:51:07.925Z,969.22
2023-04-03T02:52:07.899Z,969.24
2023-04-03T02:53:07.902Z,969.25
2023-04-03T02:54:07.867Z,969.26
2023-04-03T02:55:07.858Z,969.25
2023-04-03T02:56:07.839Z,969.24
2023-04-03T02:57:07.891Z,969.24
2023-04-03T02:58:09.702Z,969.22
2023-04-03T02:59:07.816Z,969.22
2023-04-03T03:00:07.841Z,969.22
2023-04-03T03:01:07.816Z,969.23
2023-04-03T03:02:07.776Z,969.22
2023-04-03T03:03:07.811Z,969.22
2023-04-03T03:04:07.747Z,969.23
2023-04-03T03:05:07.816Z,969.23
2023-04-03T03:06:07.730Z,969.24
2023-04-03T03:07:07.720Z,969.24
2023-04-03T03:08:07.721Z,969.24
2023-04-03T03:09:07.705Z,969.24
2023-04-03T03:10:07.690Z,969.23
2023-04-03T03:11:07.711Z,969.22
2023-04-03T03:12:07.678Z,969.22
2023-04-03T03:13:07.677Z,969.19
2023-04-03T03:14:07.653Z,969.18
2023-04-03T03:15:07.669Z,969.16
2023-04-03T03:16:07.651Z,969.15
2023-04-03T03:17:07.698Z,969.14
2023-04-03T03:18:07.654Z,969.14
2023-04-03T03:19:07.603Z,969.14
2023-04-03T03:20:07.583Z,969.13
2023-04-03T03:21:07.583Z,969.13
2023-04-03T03:22:07.556Z,969.14
2023-04-03T03:23:07.572Z,969.15
2023-04-03T03:24:07.545Z,969.13
2023-04-03T03:25:07.535Z,969.13
2023-04-03T03:26:07.512Z,969.13
2023-04-03T03:27:07.592Z,969.12
2023-04-03T03:28:07.510Z,969.11
2023-04-03T03:29:07.518Z,969.10
2023-04-03T03:30:07.490Z,969.07
2023-04-03T03:31:07.511Z,969.07
2023-04-03T03:32:07.454Z,969.07
2023-04-03T03:33:07.518Z,969.07
2023-04-03T03:34:07.442Z,969.04
2023-04-03T03:35:07.426Z,969.06
2023-04-03T03:36:07.456Z,969.06
2023-04-03T03:37:07.416Z,969.05
2023-04-03T03:38:07.398Z,969.07
2023-04-03T03:39:07.427Z,969.06
2023-04-03T03:40:07.369Z,969.06
2023-04-03T03:41:07.421Z,969.06
2023-04-03T03:42:07.350Z,969.05
2023-04-03T03:43:07.376Z,969.06
2023-04-03T03:44:07.329Z,969.06
2023-04-03T03:45:07.333Z,969.09
2023-04-03T03:46:07.360Z,969.09
2023-04-03T03:47:07.321Z,969.09
2023-04-03T03:48:07.318Z,969.09
2023-04-03T03:49:07.277Z,969.09
2023-04-03T03:50:07.281Z,969.09
2023-04-03T03:51:07.270Z,969.09
2023-04-03T03:52:07.266Z,969.08
2023-04-03T03:53:07.248Z,969.11
2023-04-03T03:54:07.238Z,969.11
2023-04-03T03:55:07.239Z,969.10
2023-04-03T03:56:07.223Z,969.10
2023-04-03T03:57:07.314Z,969.09
2023-04-03T03:58:07.216Z,969.08
2023-04-03T03:59:07.211Z,969.09
2023-04-03T04:00:07.173Z,969.09
2023-04-03T04:01:07.170Z,969.09
2023-04-03T04:02:07.201Z,969.09
2023-04-03T04:03:07.225Z,969.08
2023-04-03T04:04:07.183Z,969.11
2023-04-03T04:05:07.174Z,969.09
2023-04-03T04:06:07.112Z,969.11
2023-04-03T04:07:07.103Z,969.11
2023-04-03T04:08:07.141Z,969.11
2023-04-03T04:09:07.082Z,969.12
2023-04-03T04:10:07.081Z,969.11
2023-04-03T04:11:07.089Z,969.12
2023-04-03T04:12:07.059Z,969.10
2023-04-03T04:13:07.053Z,969.10
2023-04-03T04:14:07.071Z,969.12
2023-04-03T04:15:07.052Z,969.12
2023-04-03T04:16:07.010Z,969.10
2023-04-03T04:17:07.069Z,969.16
2023-04-03T04:18:07.045Z,969.16
2023-04-03T04:19:08.872Z,969.18
2023-04-03T04:20:07.009Z,969.16
2023-04-03T04:21:06.961Z,969.17
2023-04-03T04:22:06.957Z,969.17
2023-04-03T04:23:06.978Z,969.16
2023-04-03T04:24:06.935Z,969.16
2023-04-03T04:25:06.952Z,969.17
2023-04-03T04:26:06.920Z,969.17
2023-04-03T04:27:06.901Z,969.19
2023-04-03T04:28:06.920Z,969.17
2023-04-03T04:29:06.894Z,969.17
2023-04-03T04:30:06.945Z,969.18
2023-04-03T04:31:06.850Z,969.16
2023-04-03T04:32:06.787Z,969.18
2023-04-03T04:33:06.821Z,969.15
2023-04-03T04:34:06.840Z,969.16
2023-04-03T04:35:06.853Z,969.17
2023-04-03T04:36:06.839Z,969.15
2023-04-03T04:37:06.951Z,969.16
2023-04-03T04:38:06.758Z,969.15
2023-04-03T04:39:06.741Z,969.16
2023-04-03T04:40:06.724Z,969.15
2023-04-03T04:41:06.818Z,969.14
2023-04-03T04:42:06.737Z,969.11
2023-04-03T04:43:06.692Z,969.12
2023-04-03T04:44:06.668Z,969.11
2023-04-03T04:45:06.679Z,969.11
2023-04-03T04:46:06.727Z,969.10
2023-04-03T04:47:06.727Z,969.12
2023-04-03T04:48:06.665Z,969.10
2023-04-03T04:49:06.662Z,969.11
2023-04-03T04:50:06.615Z,969.13
2023-04-03T04:51:06.629Z,969.15
2023-04-03T04:52:06.581Z,969.12
2023-04-03T04:53:06.585Z,969.14
2023-04-03T04:54:06.571Z,969.16
2023-04-03T04:55:06.572Z,969.17
2023-04-03T04:56:06.562Z,969.15
2023-04-03T04:57:06.568Z,969.17
2023-04-03T04:58:06.574Z,969.18
2023-04-03T04:59:06.536Z,969.18
2023-04-03T05:00:06.557Z,969.21
2023-04-03T05:01:06.511Z,969.21
2023-04-03T05:02:06.549Z,969.25
2023-04-03T05:03:06.533Z,969.26
2023-04-03T05:04:06.455Z,969.27
2023-04-03T05:05:06.509Z,969.28
2023-04-03T05:06:06.471Z,969.33
2023-04-03T05:07:06.446Z,969.32
2023-04-03T05:08:06.431Z,969.34
2023-04-03T05:09:06.463Z,969.34
2023-04-03T05:10:06.411Z,969.35
2023-04-03T05:11:06.399Z,969.34
2023-04-03T05:12:06.396Z,969.35
2023-04-03T05:13:06.400Z,969.35
2023-04-03T05:14:06.360Z,969.35
2023-04-03T05:15:06.360Z,969.36
2023-04-03T05:16:06.459Z,969.35
2023-04-03T05:17:06.399Z,969.32
2023-04-03T05:18:06.350Z,969.34
2023-04-03T05:19:06.377Z,969.34
2023-04-03T05:20:06.366Z,969.30
2023-04-03T05:21:06.381Z,969.32
2023-04-03T05:22:06.372Z,969.33
2023-04-03T05:23:06.301Z,969.33
2023-04-03T05:24:06.268Z,969.34
2023-04-03T05:25:06.284Z,969.35
2023-04-03T05:26:06.266Z,969.40
2023-04-03T05:27:06.259Z,969.35
2023-04-03T05:28:06.285Z,969.35
2023-04-03T05:29:06.231Z,969.38
2023-04-03T05:30:06.197Z,969.39
2023-04-03T05:31:06.404Z,969.38
2023-04-03T05:32:06.179Z,969.38
2023-04-03T05:33:06.237Z,969.43
2023-04-03T05:34:06.192Z,969.40
2023-04-03T05:35:06.229Z,969.43
2023-04-03T05:36:06.200Z,969.41
2023-04-03T05:37:06.140Z,969.42
2023-04-03T05:38:06.140Z,969.41
2023-04-03T05:39:06.132Z,969.36
2023-04-03T05:40:06.095Z,969.42
2023-04-03T05:41:06.083Z,969.40
2023-04-03T05:42:06.082Z,969.45
2023-04-03T05:43:06.121Z,969.43
2023-04-03T05:44:06.079Z,969.44
2023-04-03T05:45:06.054Z,969.44
2023-04-03T05:46:06.062Z,969.49
2023-04-03T05:47:06.025Z,969.46
2023-04-03T05:48:06.082Z,969.47
2023-04-03T05:49:06.004Z,969.46
2023-04-03T05:50:06.125Z,969.47
2023-04-03T05:51:05.980Z,969.47
2023-04-03T05:52:05.971Z,969.51
2023-04-03T05:53:05.999Z,969.48
2023-04-03T05:54:05.954Z,969.50
2023-04-03T05:55:05.944Z,969.53
2023-04-03T05:56:05.982Z,969.50
2023-04-03T05:57:05.994Z,969.50
2023-04-03T05:58:05.926Z,969.50
2023-04-03T05:59:05.893Z,969.51
2023-04-03T06:00:05.912Z,969.60
2023-04-03T06:01:05.886Z,969.51
2023-04-03T06:02:05.898Z,969.51
2023-04-03T06:03:06.083Z,969.51
2023-04-03T06:04:06.130Z,969.53
2023-04-03T06:05:05.891Z,969.52
2023-04-03T06:06:05.864Z,969.54
2023-04-03T06:07:05.820Z,969.53
2023-04-03T06:08:05.930Z,969.52
2023-04-03T06:09:05.803Z,969.55
2023-04-03T06:10:05.798Z,969.58
2023-04-03T06:11:05.790Z,969.58
2023-04-03T06:12:05.770Z,969.57
2023-04-03T06:13:05.772Z,969.54
2023-04-03T06:14:05.755Z,969.59
2023-04-03T06:15:05.747Z,969.57
2023-04-03T06:16:05.921Z,969.61
2023-04-03T06:17:05.768Z,969.64
2023-04-03T06:18:05.783Z,969.65
2023-04-03T06:19:05.758Z,969.64
2023-04-03T06:20:05.751Z,969.65
2023-04-03T06:21:05.713Z,969.67
2023-04-03T06:22:05.674Z,969.69
2023-04-03T06:23:07.348Z,969.71
2023-04-03T06:24:05.658Z,969.73
2023-04-03T06:25:05.662Z,969.67
2023-04-03T06:26:05.644Z,969.67
2023-04-03T06:27:05.614Z,969.69
2023-04-03T06:28:05.624Z,969.70
2023-04-03T06:29:05.630Z,969.69
2023-04-03T06:30:05.595Z,969.72
2023-04-03T06:31:05.591Z,969.71
2023-04-03T06:32:05.621Z,969.74
2023-04-03T06:33:05.618Z,969.76
2023-04-03T06:34:07.212Z,969.70
2023-04-03T06:35:05.563Z,969.77
2023-04-03T06:36:05.570Z,969.73
2023-04-03T06:37:05.522Z,969.70
2023-04-03T06:38:05.528Z,969.70
2023-04-03T06:39:05.494Z,969.71
2023-04-03T06:40:05.541Z,969.71
2023-04-03T06:41:05.466Z,969.73
2023-04-03T06:42:05.496Z,969.71
2023-04-03T06:43:05.461Z,969.71
2023-04-03T06:44:05.473Z,969.73
2023-04-03T06:45:05.441Z,969.78
2023-04-03T06:46:05.485Z,969.78
2023-04-03T06:47:05.447Z,969.82
2023-04-03T06:48:05.929Z,969.79
2023-04-03T06:49:05.388Z,969.85
2023-04-03T06:50:05.390Z,969.80
2023-04-03T06:51:05.372Z,969.79
2023-04-03T06:52:05.400Z,969.75
2023-04-03T06:53:05.392Z,969.76
2023-04-03T06:54:05.361Z,969.78
2023-04-03T06:55:05.363Z,969.77
2023-04-03T06:56:05.325Z,969.76
2023-04-03T06:57:05.366Z,969.77
2023-04-03T06:58:05.351Z,969.77
2023-04-03T06:59:05.664Z,969.82
2023-04-03T07:00:05.287Z,969.74
2023-04-03T07:01:05.276Z,969.81
2023-04-03T07:02:05.489Z,969.82
2023-04-03T07:03:05.296Z,969.78
2023-04-03T07:04:05.347Z,969.86
2023-04-03T07:05:05.230Z,969.86
2023-04-03T07:06:05.227Z,969.84
2023-04-03T07:07:05.219Z,969.84
2023-04-03T07:08:05.335Z,969.85
2023-04-03T07:09:05.194Z,969.84
2023-04-03T07:10:05.184Z,969.86
2023-04-03T07:11:05.169Z,969.86
2023-04-03T07:12:05.160Z,969.83
2023-04-03T07:13:05.356Z,969.84
2023-04-03T07:14:05.170Z,969.86
2023-04-03T07:15:05.119Z,969.85
2023-04-03T07:16:05.189Z,969.92
2023-04-03T07:17:05.129Z,969.91
2023-04-03T07:18:05.196Z,969.96
2023-04-03T07:19:05.103Z,969.97
2023-04-03T07:20:05.130Z,969.98
2023-04-03T07:21:05.061Z,969.97
2023-04-03T07:22:05.110Z,970.09
2023-04-03T07:23:05.066Z,970.01
2023-04-03T07:24:05.103Z,970.01
2023-04-03T07:25:05.028Z,970.07
2023-04-03T07:26:05.047Z,969.99
2023-04-03T07:27:05.045Z,970.02
2023-04-03T07:28:05.045Z,969.98
2023-04-03T07:29:05.010Z,970.06
2023-04-03T07:30:04.991Z,970.03
2023-04-03T07:31:04.977Z,970.02
2023-04-03T07:32:05.026Z,969.98
2023-04-03T07:33:05.025Z,969.98
2023-04-03T07:34:04.938Z,970.00
2023-04-03T07:35:04.934Z,969.98
2023-04-03T07:36:04.943Z,970.01
2023-04-03T07:37:04.914Z,970.00
2023-04-03T07:38:04.944Z,970.02
2023-04-03T07:39:04.881Z,970.04
2023-04-03T07:40:04.897Z,970.05
2023-04-03T07:41:04.906Z,970.03
2023-04-03T07:42:04.863Z,970.05
2023-04-03T07:43:04.867Z,970.06
2023-04-03T07:44:04.862Z,970.07
2023-04-03T07:45:04.850Z,970.05
2023-04-03T07:46:04.901Z,970.07
2023-04-03T07:47:04.814Z,970.06
2023-04-03T07:48:04.875Z,970.07
2023-04-03T07:49:04.787Z,970.12
2023-04-03T07:50:04.795Z,970.10
2023-04-03T07:51:04.795Z,970.10
2023-04-03T07:52:04.785Z,970.09
2023-04-03T07:53:04.789Z,970.08
2023-04-03T07:54:04.753Z,970.11
2023-04-03T07:55:04.784Z,970.12
2023-04-03T07:56:04.736Z,970.17
2023-04-03T07:57:04.723Z,970.11
2023-04-03T07:58:04.750Z,970.17
2023-04-03T07:59:04.694Z,970.15
2023-04-03T08:00:04.676Z,970.14
2023-04-03T08:01:04.758Z,970.15
2023-04-03T08:02:04.650Z,970.12
2023-04-03T08:03:04.899Z,970.15
2023-04-03T08:04:04.718Z,970.18
2023-04-03T08:05:04.720Z,970.19
2023-04-03T08:06:05.120Z,970.23
2023-04-03T08:07:04.614Z,970.18
2023-04-03T08:08:04.635Z,970.17
2023-04-03T08:09:04.584Z,970.14
2023-04-03T08:10:04.602Z,970.18
2023-04-03T08:11:04.584Z,970.18
2023-04-03T08:12:04.551Z,970.20
2023-04-03T08:13:04.568Z,970.16
2023-04-03T08:14:04.535Z,970.24
2023-04-03T08:15:04.551Z,970.27
2023-04-03T08:16:04.582Z,970.22
2023-04-03T08:17:04.539Z,970.21
2023-04-03T08:18:04.930Z,970.22
2023-04-03T08:19:07.339Z,970.23
2023-04-03T08:20:04.487Z,970.21
2023-04-03T08:21:04.521Z,970.23
2023-04-03T08:22:04.454Z,970.23
2023-04-03T08:23:04.461Z,970.24
2023-04-03T08:24:04.467Z,970.24
2023-04-03T08:25:04.453Z,970.19
2023-04-03T08:26:04.422Z,970.24
2023-04-03T08:27:04.442Z,970.21
2023-04-03T08:28:04.419Z,970.22
2023-04-03T08:29:04.411Z,970.23
2023-04-03T08:30:04.383Z,970.21
2023-04-03T08:31:04.419Z,970.23
2023-04-03T08:32:04.359Z,970.30
2023-04-03T08:33:04.422Z,970.27
2023-04-03T08:34:04.346Z,970.31
2023-04-03T08:35:04.333Z,970.25
2023-04-03T08:36:04.386Z,970.24
2023-04-03T08:37:04.311Z,970.25
2023-04-03T08:38:04.315Z,970.23
2023-04-03T08:39:04.312Z,970.23
2023-04-03T08:40:04.320Z,970.28
2023-04-03T08:41:04.282Z,970.31
2023-04-03T08:42:04.259Z,970.28
2023-04-03T08:43:04.274Z,970.26
2023-04-03T08:44:04.290Z,970.26
2023-04-03T08:45:04.254Z,970.27
2023-04-03T08:46:04.245Z,970.26
2023-04-03T08:47:04.216Z,970.31
2023-04-03T08:48:04.437Z,970.27
2023-04-03T08:49:04.227Z,970.36
2023-04-03T08:50:04.215Z,970.31
2023-04-03T08:51:04.193Z,970.32
2023-04-03T08:52:04.202Z,970.25
2023-04-03T08:53:04.159Z,970.30
2023-04-03T08:54:04.164Z,970.33
2023-04-03T08:55:04.141Z,970.28
2023-04-03T08:56:04.159Z,970.33
2023-04-03T08:57:04.174Z,970.38
2023-04-03T08:58:04.153Z,970.33
2023-04-03T08:59:04.155Z,970.34
2023-04-03T09:00:04.096Z,970.34
2023-04-03T09:01:04.091Z,970.38
2023-04-03T09:02:04.111Z,970.31
2023-04-03T09:03:04.124Z,970.33
2023-04-03T09:04:04.074Z,970.34
2023-04-03T09:05:04.024Z,970.41
2023-04-03T09:06:04.060Z,970.42
2023-04-03T09:07:04.005Z,970.35
2023-04-03T09:08:04.023Z,970.36
2023-04-03T09:09:03.994Z,970.38
2023-04-03T09:10:04.105Z,970.37
2023-04-03T09:11:03.963Z,970.47
2023-04-03T09:12:03.983Z,970.30
2023-04-03T09:13:03.968Z,970.36
2023-04-03T09:14:03.979Z,970.33
2023-04-03T09:15:03.952Z,970.38
2023-04-03T09:16:03.961Z,970.37
2023-04-03T09:17:03.896Z,970.42
2023-04-03T09:18:04.015Z,970.48
2023-04-03T09:19:03.884Z,970.40
2023-04-03T09:20:03.871Z,970.39
2023-04-03T09:21:03.861Z,970.41
2023-04-03T09:22:03.865Z,970.41
2023-04-03T09:23:03.858Z,970.44
2023-04-03T09:24:03.862Z,970.40
2023-04-03T09:25:03.874Z,970.48
2023-04-03T09:26:03.825Z,970.46
2023-04-03T09:27:03.890Z,970.42
2023-04-03T09:28:03.821Z,970.48
2023-04-03T09:29:03.781Z,970.47
2023-04-03T09:30:03.774Z,970.42
2023-04-03T09:31:03.769Z,970.47
2023-04-03T09:32:03.759Z,970.41
2023-04-03T09:33:03.768Z,970.41
2023-04-03T09:34:03.777Z,970.42
2023-04-03T09:35:09.625Z,970.38
2023-04-03T09:36:03.746Z,970.38
2023-04-03T09:37:03.704Z,970.37
2023-04-03T09:38:03.704Z,970.34
2023-04-03T09:39:03.722Z,970.33
2023-04-03T09:40:03.674Z,970.33
2023-04-03T09:41:03.665Z,970.35
2023-04-03T09:42:03.699Z,970.33
2023-04-03T09:43:03.645Z,970.35
2023-04-03T09:44:03.651Z,970.39
2023-04-03T09:45:03.616Z,970.43
2023-04-03T09:46:03.615Z,970.34
2023-04-03T09:47:03.675Z,970.36
2023-04-03T09:48:03.882Z,970.35
2023-04-03T09:49:08.734Z,970.36
2023-04-03T09:50:03.594Z,970.40
2023-04-03T09:51:03.556Z,970.39
2023-04-03T09:52:03.563Z,970.37
2023-04-03T09:53:03.548Z,970.35
2023-04-03T09:54:03.534Z,970.36
2023-04-03T09:55:03.516Z,970.35
2023-04-03T09:56:03.522Z,970.41
2023-04-03T09:57:03.513Z,970.36
2023-04-03T09:58:03.505Z,970.37
2023-04-03T09:59:03.475Z,970.39
2023-04-03T10:00:03.477Z,970.37
2023-04-03T10:01:03.482Z,970.33
2023-04-03T10:02:03.462Z,970.33
2023-04-03T10:03:03.494Z,970.27
2023-04-03T10:04:03.464Z,970.34
2023-04-03T10:06:03.419Z,970.32
2023-04-03T10:07:03.401Z,970.31
2023-04-03T10:08:03.966Z,970.27
2023-04-03T10:09:03.387Z,970.30
2023-04-03T10:10:03.373Z,970.27
2023-04-03T10:11:03.429Z,970.27
2023-04-03T10:12:03.352Z,970.26
2023-04-03T10:13:03.365Z,970.33
2023-04-03T10:14:03.330Z,970.29
2023-04-03T10:15:03.319Z,970.28
2023-04-03T10:16:03.347Z,970.33
2023-04-03T10:17:03.313Z,970.27
2023-04-03T10:18:14.236Z,970.30
2023-04-03T10:19:03.422Z,970.26
2023-04-03T10:20:03.248Z,970.19
2023-04-03T10:21:03.625Z,970.20
2023-04-03T10:22:03.257Z,970.23
2023-04-03T10:23:03.313Z,970.20
2023-04-03T10:24:03.207Z,970.23
2023-04-03T10:25:03.211Z,970.21
2023-04-03T10:26:03.218Z,970.19
2023-04-03T10:27:03.212Z,970.21
2023-04-03T10:28:03.183Z,970.29
2023-04-03T10:29:03.190Z,970.23
2023-04-03T10:30:03.162Z,970.30
2023-04-03T10:31:03.235Z,970.27
2023-04-03T10:32:03.132Z,970.26
2023-04-03T10:33:03.189Z,970.25
2023-04-03T10:34:03.106Z,970.23
2023-04-03T10:35:05.313Z,970.22
2023-04-03T10:36:03.157Z,970.22
2023-04-03T10:37:03.078Z,970.23
2023-04-03T10:38:03.104Z,970.22
2023-04-03T10:39:03.073Z,970.23
2023-04-03T10:40:03.065Z,970.21
2023-04-03T10:41:03.103Z,970.22
2023-04-03T10:42:15.834Z,970.24
2023-04-03T10:43:03.059Z,970.23
2023-04-03T10:44:03.007Z,970.25
2023-04-03T10:45:03.002Z,970.27
2023-04-03T10:46:03.112Z,970.27
2023-04-03T10:47:02.973Z,970.29
2023-04-03T10:48:03.007Z,970.26
2023-04-03T10:49:03.025Z,970.29
2023-04-03T10:50:02.955Z,970.24
2023-04-03T10:51:02.934Z,970.33
2023-04-03T10:52:02.956Z,970.23
2023-04-03T10:53:02.932Z,970.19
2023-04-03T10:54:02.957Z,970.23
2023-04-03T10:55:02.898Z,970.24
2023-04-03T10:56:02.888Z,970.26
2023-04-03T10:57:11.646Z,970.23
2023-04-03T10:58:02.905Z,970.26
2023-04-03T10:59:02.859Z,970.24
2023-04-03T11:00:02.842Z,970.22
2023-04-03T11:01:02.852Z,970.26
2023-04-03T11:02:02.846Z,970.32
2023-04-03T11:03:02.886Z,970.26
2023-04-03T11:04:02.930Z,970.25
2023-04-03T11:05:02.788Z,970.25
2023-04-03T11:06:02.783Z,970.31
2023-04-03T11:07:02.782Z,970.31
2023-04-03T11:08:02.815Z,970.26
2023-04-03T11:09:02.771Z,970.41
2023-04-03T11:10:02.753Z,970.26
2023-04-03T11:11:02.821Z,970.25
2023-04-03T11:12:02.733Z,970.25
2023-04-03T11:13:02.737Z,970.25
2023-04-03T11:14:02.732Z,970.29
2023-04-03T11:15:02.724Z,970.31
2023-04-03T11:16:02.707Z,970.30
2023-04-03T11:17:02.676Z,970.27
2023-04-03T11:18:02.710Z,970.30
2023-04-03T11:19:02.679Z,970.35
2023-04-03T11:20:02.645Z,970.31
2023-04-03T11:21:02.633Z,970.41
2023-04-03T11:22:02.633Z,970.32
2023-04-03T11:23:02.633Z,970.27
2023-04-03T11:24:02.703Z,970.27
2023-04-03T11:25:02.617Z,970.21
2023-04-03T11:26:02.599Z,970.25
2023-04-03T11:27:02.580Z,970.26
2023-04-03T11:28:02.640Z,970.24
2023-04-03T11:29:02.584Z,970.28
2023-04-03T11:30:02.556Z,970.23
2023-04-03T11:31:02.572Z,970.29
2023-04-03T11:32:02.530Z,970.32
2023-04-03T11:33:02.548Z,970.27
2023-04-03T11:34:02.527Z,970.22
2023-04-03T11:35:02.515Z,970.23
2023-04-03T11:36:05.417Z,970.23
2023-04-03T11:37:02.552Z,970.21
2023-04-03T11:38:02.503Z,970.23
2023-04-03T11:39:02.462Z,970.21
2023-04-03T11:40:02.450Z,970.21
2023-04-03T11:41:02.481Z,970.17
2023-04-03T11:43:02.444Z,970.22
2023-04-03T11:44:02.433Z,970.17
2023-04-03T11:45:02.416Z,970.16
2023-04-03T11:46:02.382Z,970.16
2023-04-03T11:47:02.438Z,970.11
2023-04-03T11:48:10.175Z,970.16
2023-04-03T11:49:02.378Z,970.15
2023-04-03T11:50:02.343Z,970.10
2023-04-03T11:51:02.353Z,970.10
2023-04-03T11:52:02.338Z,970.10
2023-04-03T11:53:02.351Z,970.10
2023-04-03T11:54:02.366Z,970.07
2023-04-03T11:55:02.307Z,970.09
2023-04-03T11:56:02.296Z,970.06
2023-04-03T11:57:02.329Z,970.04
2023-04-03T11:58:02.295Z,970.07
2023-04-03T11:59:02.293Z,970.04
2023-04-03T12:00:02.252Z,970.05
2023-04-03T12:01:02.251Z,970.12
2023-04-03T12:02:02.258Z,969.99
2023-04-03T12:03:02.437Z,970.04
2023-04-03T12:04:02.331Z,970.01
2023-04-03T12:05:02.204Z,969.97
2023-04-03T12:06:02.198Z,969.97
2023-04-03T12:07:02.204Z,970.01
2023-04-03T12:08:02.177Z,969.96
2023-04-03T12:09:02.166Z,969.98
2023-04-03T12:10:02.175Z,969.95
2023-04-03T12:11:02.202Z,969.94
2023-04-03T12:12:02.119Z,969.95
2023-04-03T12:13:02.142Z,969.92
2023-04-03T12:14:02.180Z,969.92
2023-04-03T12:15:02.110Z,969.94
2023-04-03T12:16:02.080Z,969.92
2023-04-03T12:17:02.142Z,969.93
2023-04-03T12:18:02.097Z,969.88
2023-04-03T12:19:02.059Z,969.91
2023-04-03T12:20:02.059Z,969.91
2023-04-03T12:21:02.043Z,969.91
2023-04-03T12:22:02.032Z,969.88
2023-04-03T12:23:02.038Z,969.88
2023-04-03T12:24:02.046Z,969.85
2023-04-03T12:25:02.021Z,969.89
2023-04-03T12:26:01.991Z,969.88
2023-04-03T12:27:01.980Z,969.86
2023-04-03T12:28:01.983Z,969.87
2023-04-03T12:29:01.959Z,969.81
2023-04-03T12:30:01.943Z,969.80